Time;durP1;ratioP1;P1;durP2;ratioP2;P2;SDS_P1;SDS_P2;PMS_P1;PMS_P2;Temp;Humidity;BMP_temperature;BMP_pressure;BME280_temperature;BME280_humidity;BME280_pressure;Samples;Min_cycle;Max_cycle;Signal;HPM_P1;HPM_P2
2023/04/05 00:01:25;;;;;;;15.25;8.82;;;;;;;-1.17;100.00;102664.69;5096700;28;20035;-73
2023/04/05 00:03:57;;;;;;;17.23;9.45;;;;;;;-1.19;100.00;102660.41;5114440;28;20072;-73
2023/04/05 00:06:30;;;;;;;14.63;9.20;;;;;;;-1.21;100.00;102659.53;5114954;28;20102;-73
2023/04/05 00:08:58;;;;;;;16.42;8.90;;;;;;;-1.23;100.00;102661.31;5096329;28;20600;-72
2023/04/05 00:11:28;;;;;;;17.50;9.07;;;;;;;-1.29;100.00;102652.66;5114937;28;20493;-72
2023/04/05 00:13:54;;;;;;;13.48;8.43;;;;;;;-1.30;100.00;102650.94;5114398;28;20030;-73
2023/04/05 00:16:20;;;;;;;17.65;9.18;;;;;;;-1.33;100.00;102655.31;5114783;28;20107;-72
2023/04/05 00:18:50;;;;;;;14.05;9.02;;;;;;;-1.36;100.00;102656.22;5114163;28;20035;-73
2023/04/05 00:21:21;;;;;;;14.15;9.57;;;;;;;-1.38;100.00;102651.91;5114883;28;20040;-73
2023/04/05 00:23:50;;;;;;;16.73;10.43;;;;;;;-1.40;100.00;102653.66;5113964;28;20089;-72
2023/04/05 00:26:16;;;;;;;15.85;10.45;;;;;;;-1.41;100.00;102652.81;5114655;28;20108;-74
2023/04/05 00:28:41;;;;;;;16.80;10.27;;;;;;;-1.44;100.00;102647.63;5114480;28;20035;-73
2023/04/05 00:31:06;;;;;;;19.30;10.65;;;;;;;-1.46;100.00;102650.25;5095442;28;20048;-73
2023/04/05 00:33:32;;;;;;;17.27;9.73;;;;;;;-1.48;100.00;102652.03;5114451;28;20089;-73
2023/04/05 00:36:06;;;;;;;18.50;10.10;;;;;;;-1.52;100.00;102659.88;5113992;28;20067;-72
2023/04/05 00:38:32;;;;;;;16.40;9.90;;;;;;;-1.55;100.00;102652.09;5114355;28;20400;-72
2023/04/05 00:40:57;;;;;;;18.08;10.25;;;;;;;-1.56;100.00;102651.22;5114150;28;20114;-71
2023/04/05 00:43:22;;;;;;;17.15;10.70;;;;;;;-1.56;100.00;102645.16;5114350;28;20049;-74
2023/04/05 00:45:48;;;;;;;17.02;10.40;;;;;;;-1.61;100.00;102645.22;5094964;28;20054;-73
2023/04/05 00:48:13;;;;;;;14.50;10.00;;;;;;;-1.64;100.00;102640.03;5113801;28;20024;-71
2023/04/05 00:50:40;;;;;;;16.88;10.38;;;;;;;-1.67;100.00;102642.63;5114207;28;20059;-73
2023/04/05 00:53:06;;;;;;;15.60;9.65;;;;;;;-1.70;100.00;102633.13;5095953;28;20585;-73
2023/04/05 00:55:32;;;;;;;17.98;10.40;;;;;;;-1.76;100.00;102633.19;5114313;28;20421;-73
2023/04/05 00:57:58;;;;;;;15.13;9.35;;;;;;;-1.81;100.00;102624.50;5113679;28;20036;-72
2023/04/05 01:00:24;;;;;;;15.82;10.32;;;;;;;-1.85;100.00;102623.69;5114218;28;20402;-71
2023/04/05 01:02:56;;;;;;;17.60;9.80;;;;;;;-1.87;100.00;102629.78;5113554;27;20092;-71
2023/04/05 01:05:44;;;;;;;16.63;10.48;;;;;;;-1.92;100.00;102629.84;5114008;28;20491;-72
2023/04/05 01:08:12;;;;;;;16.20;10.52;;;;;;;-1.92;100.00;102618.56;5113635;28;20023;-71
2023/04/05 01:10:41;;;;;;;20.17;10.68;;;;;;;-1.96;100.00;102629.03;5113811;28;20031;-72
2023/04/05 01:13:07;;;;;;;20.90;10.65;;;;;;;-1.98;100.00;102625.53;5113561;28;20031;-73
2023/04/05 01:15:33;;;;;;;17.13;11.07;;;;;;;-1.99;100.00;102622.94;5113645;28;20503;-72
2023/04/05 01:18:00;;;;;;;22.73;11.07;;;;;;;-2.02;100.00;102621.22;5113542;28;20157;-71
2023/04/05 01:20:31;;;;;;;18.13;10.65;;;;;;;-2.02;100.00;102612.53;5113661;28;20032;-71
2023/04/05 01:23:29;;;;;;;16.08;10.65;;;;;;;-2.04;100.00;102614.31;5113461;28;20042;-72
2023/04/05 01:26:25;;;;;;;17.75;10.60;;;;;;;-2.09;100.00;102614.38;5113259;28;20445;-71
2023/04/05 01:29:28;;;;;;;16.48;10.00;;;;;;;-2.12;100.00;102616.97;5113173;28;20073;-72
2023/04/05 01:32:21;;;;;;;15.45;10.43;;;;;;;-2.16;100.00;102616.16;5113003;28;20053;-71
2023/04/05 01:35:00;;;;;;;17.27;10.73;;;;;;;-2.18;100.00;102609.19;5113582;28;20059;-73
2023/04/05 01:37:30;;;;;;;18.30;10.48;;;;;;;-2.20;100.00;102597.94;5113382;28;20472;-72
2023/04/05 01:39:56;;;;;;;18.60;10.90;;;;;;;-2.20;100.00;102604.00;5112790;28;20027;-72
2023/04/05 01:42:26;;;;;;;19.40;11.45;;;;;;;-2.22;100.00;102599.69;5113082;28;20118;-72
2023/04/05 01:44:53;;;;;;;15.52;10.57;;;;;;;-2.24;100.00;102602.31;5113306;28;20023;-72
2023/04/05 01:47:19;;;;;;;17.45;10.50;;;;;;;-2.25;100.00;102594.50;5113114;28;20047;-73
2023/04/05 01:49:45;;;;;;;21.77;10.70;;;;;;;-2.29;100.00;102593.66;5113144;28;20379;-72
2023/04/05 01:52:10;;;;;;;23.15;12.40;;;;;;;-2.31;100.00;102588.47;5094467;28;20100;-73
2023/04/05 01:54:36;;;;;;;19.95;12.10;;;;;;;-2.28;100.00;102587.56;5113375;28;20032;-72
2023/04/05 01:57:01;;;;;;;22.95;13.18;;;;;;;-2.29;100.00;102588.44;5111604;28;20067;-71
2023/04/05 01:59:26;;;;;;;18.38;10.82;;;;;;;-2.33;100.00;102577.19;5113346;28;20035;-73
2023/04/05 02:01:52;;;;;;;18.27;12.07;;;;;;;-2.35;100.00;102578.06;5113423;28;20031;-71
2023/04/05 02:04:17;;;;;;;19.05;10.75;;;;;;;-2.37;100.00;102574.63;5112691;28;20059;-74
2023/04/05 02:06:43;;;;;;;20.48;11.90;;;;;;;-2.41;100.00;102568.56;5112859;28;20035;-73
2023/04/05 02:09:08;;;;;;;16.98;11.18;;;;;;;-2.43;100.00;102570.31;5112229;28;20056;-70
2023/04/05 02:11:33;;;;;;;17.65;10.90;;;;;;;-2.47;100.00;102560.78;5112881;28;20070;-72
2023/04/05 02:13:59;;;;;;;16.98;11.43;;;;;;;-2.46;100.00;102559.91;5112595;28;20039;-73
2023/04/05 02:16:25;;;;;;;20.02;11.35;;;;;;;-2.49;100.00;102554.75;5112891;28;20099;-73
2023/04/05 02:18:56;;;;;;;18.52;12.48;;;;;;;-2.50;100.00;102555.59;5112988;28;20050;-73
2023/04/05 02:21:22;;;;;;;15.60;10.68;;;;;;;-2.53;100.00;102553.03;5113006;28;20473;-73
2023/04/05 02:23:48;;;;;;;20.58;11.30;;;;;;;-2.55;100.00;102555.66;5112594;28;20100;-72
2023/04/05 02:26:13;;;;;;;17.65;10.35;;;;;;;-2.57;100.00;102554.78;5093359;28;20407;-72
2023/04/05 02:28:39;;;;;;;16.42;10.65;;;;;;;-2.59;100.00;102559.16;5112381;28;20038;-71
2023/04/05 02:31:10;;;;;;;16.23;10.15;;;;;;;-2.61;100.00;102552.19;5112355;28;20176;-72
2023/04/05 02:33:35;;;;;;;16.45;10.10;;;;;;;-2.62;100.00;102550.50;5112676;28;20027;-73
2023/04/05 02:36:04;;;;;;;19.42;10.30;;;;;;;-2.63;100.00;102556.56;5111712;28;20036;-73
2023/04/05 02:38:30;;;;;;;15.65;10.48;;;;;;;-2.63;100.00;102559.19;5112068;28;20036;-71
2023/04/05 02:40:55;;;;;;;19.42;10.15;;;;;;;-2.67;100.00;102555.75;5094453;28;20039;-72
2023/04/05 02:43:21;;;;;;;18.50;10.85;;;;;;;-2.69;100.00;102547.06;5111769;28;20134;-73
2023/04/05 02:45:46;;;;;;;17.65;9.88;;;;;;;-2.72;100.00;102540.13;5112353;28;20438;-72
2023/04/05 02:48:11;;;;;;;15.55;10.10;;;;;;;-2.72;100.00;102554.91;5111711;28;20031;-72
2023/04/05 02:50:37;;;;;;;15.27;10.20;;;;;;;-2.75;100.00;102553.19;5093974;28;20110;-73
2023/04/05 02:53:02;;;;;;;16.40;10.63;;;;;;;-2.76;100.00;102551.47;5111863;28;20035;-72
2023/04/05 02:55:29;;;;;;;17.25;10.23;;;;;;;-2.77;100.00;102549.72;5112298;28;20100;-73
2023/04/05 02:57:59;;;;;;;15.50;9.65;;;;;;;-2.81;100.00;102542.81;5112269;28;20032;-73
2023/04/05 03:00:25;;;;;;;14.35;10.05;;;;;;;-2.82;100.00;102541.09;5111729;28;20032;-73
2023/04/05 03:02:50;;;;;;;17.83;10.13;;;;;;;-2.84;100.00;102538.50;5112232;28;20466;-73
2023/04/05 03:05:17;;;;;;;17.35;10.27;;;;;;;-2.85;100.00;102528.94;5111763;28;20088;-72
2023/04/05 03:07:45;;;;;;;19.98;10.48;;;;;;;-2.83;100.00;102532.41;5093947;28;20396;-72
2023/04/05 03:10:12;;;;;;;18.75;11.85;;;;;;;-2.83;100.00;102528.94;5116193;28;20028;-72
2023/04/05 03:12:38;;;;;;;16.10;9.60;;;;;;;-2.84;100.00;102541.09;5116432;28;20033;-73
2023/04/05 03:15:04;;;;;;;17.65;9.55;;;;;;;-2.86;100.00;102535.03;5116082;28;20036;-69
2023/04/05 03:17:29;;;;;;;15.75;9.90;;;;;;;-2.87;100.00;102537.66;5116157;28;20550;-72
2023/04/05 03:19:55;;;;;;;16.63;10.00;;;;;;;-2.91;100.00;102531.59;5116217;28;20040;-72
2023/04/05 03:22:20;;;;;;;16.38;9.85;;;;;;;-2.93;100.00;102535.09;5115547;28;20483;-72
2023/04/05 03:24:46;;;;;;;17.10;10.10;;;;;;;-2.96;100.00;102533.34;5116128;28;20039;-72
2023/04/05 03:27:13;;;;;;;19.83;10.45;;;;;;;-2.98;100.00;102532.50;5115851;28;20039;-71
2023/04/05 03:29:41;;;;;;;17.45;9.40;;;;;;;-3.01;100.00;102529.94;5115970;28;20051;-72
2023/04/05 03:32:10;;;;;;;14.15;8.75;;;;;;;-3.02;100.00;102525.59;5115539;28;20035;-72
2023/04/05 03:34:37;;;;;;;14.88;9.07;;;;;;;-3.05;100.00;102529.06;5115927;28;20036;-72
2023/04/05 03:37:03;;;;;;;18.55;9.18;;;;;;;-3.04;100.00;102528.22;5115428;28;20379;-72
2023/04/05 03:39:28;;;;;;;16.23;9.18;;;;;;;-3.04;100.00;102525.59;5115267;28;20110;-72
2023/04/05 03:41:55;;;;;;;12.93;8.05;;;;;;;-3.06;100.00;102522.16;5115817;28;20027;-72
2023/04/05 03:44:20;;;;;;;16.52;9.13;;;;;;;-3.07;100.00;102514.34;5115253;28;20031;-73
2023/04/05 03:46:46;;;;;;;16.02;8.90;;;;;;;-3.09;100.00;102514.38;5115682;28;20103;-72
2023/04/05 03:49:11;;;;;;;14.98;9.32;;;;;;;-3.09;100.00;102513.47;5115206;28;20024;-72
2023/04/05 03:51:36;;;;;;;14.50;8.82;;;;;;;-3.10;100.00;102511.78;5115514;28;20050;-72
2023/04/05 03:54:02;;;;;;;15.35;9.68;;;;;;;-3.12;100.00;102501.38;5115672;28;20028;-72
2023/04/05 03:56:27;;;;;;;16.10;8.68;;;;;;;-3.12;100.00;102506.56;5115240;28;20033;-73
2023/04/05 03:58:53;;;;;;;14.82;8.52;;;;;;;-3.14;100.00;102504.84;5115630;28;20425;-73
2023/04/05 04:01:18;;;;;;;12.82;8.45;;;;;;;-3.18;100.00;102501.38;5115131;28;20035;-72
2023/04/05 04:03:44;;;;;;;15.23;8.57;;;;;;;-3.19;100.00;102505.72;5096985;28;20045;-73
2023/04/05 04:06:10;;;;;;;14.82;8.30;;;;;;;-3.19;100.00;102510.94;5096871;28;20118;-73
2023/04/05 04:08:35;;;;;;;14.60;7.40;;;;;;;-3.21;100.00;102506.59;5115152;28;20078;-72
2023/04/05 04:11:01;;;;;;;15.82;7.88;;;;;;;-3.22;100.00;102510.09;5115023;28;20063;-72
2023/04/05 04:13:26;;;;;;;14.10;8.77;;;;;;;-3.23;100.00;102506.63;5096049;28;20036;-72
2023/04/05 04:15:52;;;;;;;14.75;8.63;;;;;;;-3.22;100.00;102502.28;5114289;28;20034;-72
2023/04/05 04:18:17;;;;;;;14.35;8.13;;;;;;;-3.22;100.00;102503.16;5114386;28;20560;-71
2023/04/05 04:20:42;;;;;;;13.70;7.82;;;;;;;-3.24;100.00;102497.09;5114010;28;20385;-71
2023/04/05 04:23:09;;;;;;;14.88;8.35;;;;;;;-3.25;100.00;102504.91;5114631;28;20054;-73
2023/04/05 04:25:36;;;;;;;13.85;7.38;;;;;;;-3.25;100.00;102508.38;5114076;28;20036;-73
2023/04/05 04:28:03;;;;;;;11.65;7.90;;;;;;;-3.23;100.00;102508.38;5114191;28;20533;-73
2023/04/05 04:30:28;;;;;;;15.88;8.40;;;;;;;-3.25;100.00;102504.91;5114306;28;20469;-73
2023/04/05 04:32:54;;;;;;;14.65;8.32;;;;;;;-3.26;100.00;102506.63;5114623;28;20038;-73
2023/04/05 04:35:23;;;;;;;14.70;8.00;;;;;;;-3.29;100.00;102506.66;5114204;28;20030;-72
2023/04/05 04:37:59;;;;;;;13.65;8.02;;;;;;;-3.30;100.00;102507.56;5114704;28;20039;-73
2023/04/05 04:40:37;;;;;;;13.77;7.90;;;;;;;-3.32;100.00;102503.22;5114471;28;20034;-71
2023/04/05 04:43:05;;;;;;;16.00;7.97;;;;;;;-3.35;100.00;102498.88;5114629;28;20080;-72
2023/04/05 04:45:36;;;;;;;14.38;8.52;;;;;;;-3.35;100.00;102498.03;5114205;28;20048;-72
2023/04/05 04:48:03;;;;;;;15.73;8.43;;;;;;;-3.38;100.00;102499.75;5115115;28;20036;-73
2023/04/05 04:50:31;;;;;;;18.30;9.05;;;;;;;-3.38;100.00;102499.75;5113957;28;20038;-73
2023/04/05 04:53:03;;;;;;;13.00;7.72;;;;;;;-3.39;100.00;102500.66;5114185;28;20134;-72
2023/04/05 04:55:29;;;;;;;11.80;7.55;;;;;;;-3.39;100.00;102507.59;5113919;28;20106;-72
2023/04/05 04:57:55;;;;;;;14.55;8.63;;;;;;;-3.40;100.00;102501.53;5114330;28;20157;-72
2023/04/05 05:00:22;;;;;;;15.40;8.55;;;;;;;-3.39;100.00;102504.97;5113892;28;20024;-72
2023/04/05 05:02:49;;;;;;;19.50;8.57;;;;;;;-3.38;100.00;102504.13;5114578;28;20038;-72
2023/04/05 05:05:15;;;;;;;12.90;8.30;;;;;;;-3.38;100.00;102506.72;5114312;28;20043;-72
2023/04/05 05:07:41;;;;;;;17.67;8.55;;;;;;;-3.35;100.00;102503.25;5095608;28;20032;-73
2023/04/05 05:10:08;;;;;;;15.73;8.57;;;;;;;-3.33;100.00;102510.16;5114331;28;20032;-73
2023/04/05 05:12:33;;;;;;;13.43;8.68;;;;;;;-3.33;100.00;102507.53;5113853;28;20059;-72
2023/04/05 05:14:58;;;;;;;12.50;7.95;;;;;;;-3.32;100.00;102508.44;5114356;28;20119;-72
2023/04/05 05:17:24;;;;;;;19.05;9.45;;;;;;;-3.30;100.00;102512.75;5113532;28;20061;-72
2023/04/05 05:19:50;;;;;;;14.52;8.52;;;;;;;-3.29;100.00;102509.25;5114165;28;20028;-72
2023/04/05 05:22:16;;;;;;;14.43;9.02;;;;;;;-3.27;100.00;102512.75;5113935;28;20043;-71
2023/04/05 05:24:43;;;;;;;15.27;8.98;;;;;;;-3.25;100.00;102512.72;5113573;28;20043;-72
2023/04/05 05:27:09;;;;;;;14.93;9.20;;;;;;;-3.22;100.00;102521.38;5113677;28;20028;-72
2023/04/05 05:29:34;;;;;;;19.20;9.77;;;;;;;-3.17;100.00;102523.09;5113216;28;20480;-71
2023/04/05 05:31:59;;;;;;;14.05;9.48;;;;;;;-3.14;100.00;102523.06;5113680;28;20464;-72
2023/04/05 05:34:25;;;;;;;15.15;9.13;;;;;;;-3.09;100.00;102513.47;5113603;28;20039;-73
2023/04/05 05:36:52;;;;;;;17.48;10.07;;;;;;;-3.06;100.00;102513.44;5113565;28;20059;-71
2023/04/05 05:39:17;;;;;;;16.80;10.00;;;;;;;-2.99;100.00;102529.91;5113548;28;20063;-73
2023/04/05 05:41:44;;;;;;;17.48;9.55;;;;;;;-2.94;100.00;102521.22;5112989;28;20058;-73
2023/04/05 05:44:09;;;;;;;18.27;10.05;;;;;;;-2.88;100.00;102525.47;5113289;28;20558;-70
2023/04/05 05:46:34;;;;;;;15.95;10.20;;;;;;;-2.79;100.00;102532.38;5094911;28;20039;-72
2023/04/05 05:49:00;;;;;;;20.92;9.63;;;;;;;-2.70;100.00;102532.31;5106616;28;20106;-74
2023/04/05 05:51:25;;;;;;;16.15;9.27;;;;;;;-2.60;100.00;102533.09;5106975;28;20466;-70
2023/04/05 05:53:51;;;;;;;17.65;10.68;;;;;;;-2.53;100.00;102533.03;5104175;28;20119;-73
2023/04/05 05:56:16;;;;;;;18.88;10.68;;;;;;;-2.42;100.00;102526.84;5112814;28;20480;-73
2023/04/05 05:58:41;;;;;;;19.15;9.73;;;;;;;-2.33;100.00;102524.16;5109592;28;20043;-72
2023/04/05 06:01:07;;;;;;;15.48;9.40;;;;;;;-2.22;100.00;102521.47;5097717;28;20032;-72
2023/04/05 06:03:33;;;;;;;13.98;8.70;;;;;;;-2.08;100.00;102521.31;5112529;28;20040;-72
2023/04/05 06:05:59;;;;;;;15.82;9.50;;;;;;;-1.95;100.00;102515.06;5112982;28;20043;-72
2023/04/05 06:08:28;;;;;;;17.55;9.90;;;;;;;-1.82;100.00;102514.06;5100055;27;20123;-71
2023/04/05 06:10:54;;;;;;;18.05;10.93;;;;;;;-1.66;100.00;102517.31;5089903;28;20476;-71
2023/04/05 06:13:19;;;;;;;14.85;9.60;;;;;;;-1.51;100.00;102511.03;5089489;28;20032;-70
2023/04/05 06:15:46;;;;;;;21.95;11.43;;;;;;;-1.36;100.00;102509.97;5089442;28;20111;-71
2023/04/05 06:18:12;;;;;;;18.38;11.30;;;;;;;-1.21;100.00;102511.50;5089769;28;20043;-71
2023/04/05 06:20:39;;;;;;;17.50;10.90;;;;;;;-1.05;100.00;102511.28;5089178;28;20036;-71
2023/04/05 06:23:08;;;;;;;18.88;10.80;;;;;;;-0.90;100.00;102509.31;5089459;28;20040;-72
2023/04/05 06:25:34;;;;;;;15.93;10.70;;;;;;;-0.75;100.00;102512.53;5089200;28;20036;-71
2023/04/05 06:28:02;;;;;;;23.75;12.65;;;;;;;-0.63;100.00;102501.03;5089365;28;20107;-72
2023/04/05 06:30:28;;;;;;;19.10;11.80;;;;;;;-0.50;100.00;102496.47;5089575;28;20032;-71
2023/04/05 06:32:53;;;;;;;24.48;12.43;;;;;;;-0.39;100.00;102500.59;5089346;28;20470;-72
2023/04/05 06:35:23;;;;;;;22.00;13.00;;;;;;;-0.27;100.00;102499.53;5089932;28;20028;-71
2023/04/05 06:37:49;;;;;;;19.38;12.25;;;;;;;-0.14;100.00;102510.59;5089208;28;20466;-70
2023/04/05 06:40:15;;;;;;;23.55;13.13;;;;;;;-0.02;100.00;102507.75;5089750;28;20054;-69
2023/04/05 06:42:40;;;;;;;20.90;12.60;;;;;;;0.12;100.00;102515.34;5088517;28;20070;-70
2023/04/05 06:45:06;;;;;;;22.42;12.35;;;;;;;0.25;100.00;102507.22;5089376;28;20123;-71
2023/04/05 06:47:36;;;;;;;20.85;12.90;;;;;;;0.39;100.00;102510.44;5089171;28;20436;-71
2023/04/05 06:50:02;;;;;;;22.00;12.80;;;;;;;0.53;100.00;102507.50;5089591;28;20418;-70
2023/04/05 06:52:28;;;;;;;18.05;11.65;;;;;;;0.68;100.00;102512.41;5088571;28;20171;-70
2023/04/05 06:54:53;;;;;;;22.63;12.02;;;;;;;0.82;100.00;102513.84;5088767;28;20545;-69
2023/04/05 06:57:19;;;;;;;28.20;12.48;;;;;;;0.92;100.00;102507.50;5088844;28;20430;-69
2023/04/05 06:59:45;;;;;;;18.15;12.00;;;;;;;1.04;100.00;102511.59;5088809;28;20152;-69
2023/04/05 07:02:10;;;;;;;19.33;12.50;;;;;;;1.16;100.00;102513.91;5089588;28;20558;-69
2023/04/05 07:04:36;;;;;;;23.65;13.00;;;;;;;1.31;100.00;102507.44;5089257;28;20066;-73
2023/04/05 07:07:02;;;;;;;19.45;12.20;;;;;;;1.46;100.00;102514.06;5089309;28;20040;-70
2023/04/05 07:09:32;;;;;;;20.92;13.07;;;;;;;1.63;100.00;102511.00;5088985;28;20478;-71
2023/04/05 07:11:58;;;;;;;21.15;12.57;;;;;;;1.77;100.00;102500.13;5088627;28;20028;-71
2023/04/05 07:14:23;;;;;;;28.58;14.23;;;;;;;1.94;100.00;102503.19;5070719;28;20028;-72
2023/04/05 07:16:51;;;;;;;21.83;11.80;;;;;;;2.11;100.00;102499.22;5070459;28;20035;-72
2023/04/05 07:19:17;;;;;;;20.25;11.52;;;;;;;2.28;100.00;102496.97;5088849;28;20079;-71
2023/04/05 07:21:43;;;;;;;19.77;11.93;;;;;;;2.43;100.00;102500.03;5088568;28;20073;-72
2023/04/05 07:24:08;;;;;;;21.92;12.63;;;;;;;2.60;100.00;102491.66;5088804;28;20093;-72
2023/04/05 07:26:34;;;;;;;22.98;11.98;;;;;;;2.74;100.00;102501.75;5088954;28;20426;-72
2023/04/05 07:29:01;;;;;;;20.70;12.15;;;;;;;2.87;100.00;102494.34;5088753;28;20480;-73
2023/04/05 07:31:26;;;;;;;21.67;11.82;;;;;;;3.01;100.00;102500.00;5070508;28;20607;-73
2023/04/05 07:33:52;;;;;;;18.83;12.13;;;;;;;3.15;100.00;102491.66;5088498;28;20040;-72
2023/04/05 07:36:17;;;;;;;18.05;12.10;;;;;;;3.29;100.00;102483.31;5088885;28;20136;-73
2023/04/05 07:38:43;;;;;;;19.45;12.32;;;;;;;3.41;100.00;102484.69;5089055;28;20039;-71
2023/04/05 07:41:10;;;;;;;20.13;11.68;;;;;;;3.56;100.00;102481.50;5088443;28;20039;-73
2023/04/05 07:43:35;;;;;;;18.90;11.60;;;;;;;3.74;100.00;102479.16;5088768;28;20477;-73
2023/04/05 07:46:02;;;;;;;14.70;11.05;;;;;;;3.92;100.00;102483.75;5088477;28;20043;-73
2023/04/05 07:48:28;;;;;;;17.20;11.50;;;;;;;4.13;100.00;102483.88;5088901;28;20232;-71
2023/04/05 07:50:54;;;;;;;16.10;10.52;;;;;;;4.33;100.00;102476.09;5088438;28;20525;-72
2023/04/05 07:53:19;;;;;;;19.42;11.40;;;;;;;4.49;100.00;102481.59;5070304;28;20424;-72
2023/04/05 07:55:45;;;;;;;20.45;11.13;;;;;;;4.70;100.00;102476.41;5089897;28;20078;-72
2023/04/05 07:58:10;;;;;;;16.85;11.18;;;;;;;4.98;100.00;102483.25;5092241;28;20075;-70
2023/04/05 08:00:36;;;;;;;17.08;11.13;;;;;;;5.30;100.00;102477.47;5092215;28;20064;-72
2023/04/05 08:03:03;;;;;;;15.00;10.48;;;;;;;5.68;100.00;102470.63;5091963;28;20064;-72
2023/04/05 08:05:29;;;;;;;18.90;10.25;;;;;;;5.95;100.00;102466.72;5092134;28;20067;-72
2023/04/05 08:07:56;;;;;;;18.85;10.23;;;;;;;6.37;100.00;102467.50;5091891;28;20446;-71
2023/04/05 08:10:22;;;;;;;16.50;9.68;;;;;;;6.85;100.00;102463.47;5092343;28;20051;-72
2023/04/05 08:12:47;;;;;;;16.25;10.05;;;;;;;7.45;100.00;102461.38;5091868;28;20048;-73
2023/04/05 08:15:13;;;;;;;15.65;9.73;;;;;;;8.18;93.94;102469.88;5074064;28;20469;-72
2023/04/05 08:17:38;;;;;;;23.55;9.50;;;;;;;8.80;89.27;102467.34;5092466;28;20032;-73
2023/04/05 08:20:04;;;;;;;18.02;9.45;;;;;;;9.09;80.52;102467.47;5091584;28;20038;-74
2023/04/05 08:22:30;;;;;;;17.20;9.85;;;;;;;9.23;74.45;102468.47;5074092;28;20028;-75
2023/04/05 08:24:55;;;;;;;17.75;9.73;;;;;;;9.46;76.51;102462.59;5091881;28;20131;-78
2023/04/05 08:27:20;;;;;;;12.68;8.30;;;;;;;9.64;75.02;102462.44;5073632;28;20127;-74
2023/04/05 08:29:46;;;;;;;18.80;8.95;;;;;;;9.34;65.38;102464.22;5091524;28;20047;-74
2023/04/05 08:32:11;;;;;;;15.00;9.98;;;;;;;9.14;68.32;102468.03;5092081;28;20074;-83
2023/04/05 08:34:37;;;;;;;15.68;9.90;;;;;;;9.00;64.67;102458.25;5091823;28;20483;-72
2023/04/05 08:37:02;;;;;;;16.92;9.77;;;;;;;9.10;73.86;102466.50;5086378;28;20455;-70
2023/04/05 08:39:27;;;;;;;14.38;8.80;;;;;;;9.01;70.48;102461.75;5111169;28;20104;-71
2023/04/05 08:42:06;;;;;;;15.90;9.07;;;;;;;9.13;71.03;102460.16;5113763;28;20039;-72
2023/04/05 08:44:35;;;;;;;14.52;9.30;;;;;;;9.41;69.22;102458.53;5114890;28;20023;-71
2023/04/05 08:47:01;;;;;;;17.35;9.07;;;;;;;9.61;63.30;102457.31;5114048;28;20028;-72
2023/04/05 08:49:26;;;;;;;15.25;9.05;;;;;;;9.80;65.38;102454.41;5114647;28;20393;-72
2023/04/05 08:51:53;;;;;;;13.98;9.65;;;;;;;9.99;61.01;102443.50;5113963;28;20400;-72
2023/04/05 08:54:19;;;;;;;14.48;9.73;;;;;;;10.25;56.94;102449.81;5114729;28;20059;-72
2023/04/05 08:56:47;;;;;;;15.10;9.38;;;;;;;10.65;55.43;102441.94;5114532;28;20066;-72
2023/04/05 08:59:15;;;;;;;19.60;10.07;;;;;;;11.37;54.73;102444.25;5114372;28;20028;-70
2023/04/05 09:01:42;;;;;;;18.55;9.77;;;;;;;12.20;48.53;102461.63;5114285;28;20059;-72
2023/04/05 09:04:22;;;;;;;13.23;8.35;;;;;;;13.34;45.35;102452.38;5113735;28;20040;-72
2023/04/05 09:06:51;;;;;;;24.23;8.82;;;;;;;14.47;41.96;102447.03;5113932;28;20032;-70
2023/04/05 09:09:19;;;;;;;18.83;8.68;;;;;;;15.78;38.33;102446.78;5114327;28;20027;-71
2023/04/05 09:11:44;;;;;;;17.02;8.68;;;;;;;15.98;37.87;102444.16;5095912;28;20448;-71
2023/04/05 09:14:10;;;;;;;15.02;8.57;;;;;;;16.40;37.73;102447.53;5113731;28;20066;-71
2023/04/05 09:16:37;;;;;;;16.80;8.38;;;;;;;17.10;36.79;102446.59;5114014;28;20063;-71
2023/04/05 09:19:03;;;;;;;14.82;8.93;;;;;;;17.64;36.64;102444.22;5113684;28;20039;-71
2023/04/05 09:21:29;;;;;;;16.05;8.80;;;;;;;17.21;34.42;102441.09;5095596;28;20035;-69
2023/04/05 09:23:55;;;;;;;14.10;8.98;;;;;;;17.35;34.45;102438.94;5113294;28;20043;-72
2023/04/05 09:26:24;;;;;;;14.90;8.60;;;;;;;17.66;33.87;102439.56;5113880;28;20032;-72
2023/04/05 09:28:50;;;;;;;12.18;8.18;;;;;;;17.90;30.93;102438.19;5113780;28;20032;-71
2023/04/05 09:31:35;;;;;;;11.90;8.15;;;;;;;18.25;31.71;102431.22;5113766;28;20036;-71
2023/04/05 09:34:04;;;;;;;13.75;8.70;;;;;;;17.57;32.51;102437.72;5113546;28;20128;-71
2023/04/05 09:36:33;;;;;;;13.70;8.20;;;;;;;17.53;31.40;102437.19;5113706;28;20032;-70
2023/04/05 09:39:06;;;;;;;12.40;8.48;;;;;;;18.11;31.36;102427.19;5113252;28;20043;-70
2023/04/05 09:41:32;;;;;;;13.35;8.25;;;;;;;18.25;32.14;102428.53;5113481;28;20027;-71
2023/04/05 09:43:58;;;;;;;12.95;8.40;;;;;;;18.21;30.08;102430.66;5112942;28;20054;-71
2023/04/05 09:46:38;;;;;;;12.60;8.45;;;;;;;18.38;33.20;102439.78;5095197;28;20469;-70
2023/04/05 09:49:05;;;;;;;14.37;9.13;;;;;;;18.76;30.34;102434.25;5113085;28;20426;-70
2023/04/05 09:51:36;;;;;;;15.60;9.70;;;;;;;18.46;30.41;102431.78;5113285;28;20280;-71
2023/04/05 09:54:06;;;;;;;14.45;8.88;;;;;;;18.29;30.44;102432.63;5091062;28;20373;-70
2023/04/05 09:56:34;;;;;;;14.18;9.13;;;;;;;18.70;30.54;102427.63;5092763;28;20024;-71
2023/04/05 09:59:08;;;;;;;13.07;8.70;;;;;;;18.46;31.04;102425.56;5092725;28;20024;-71
2023/04/05 10:01:33;;;;;;;16.05;8.68;;;;;;;18.66;30.95;102416.31;5093145;28;20039;-72
2023/04/05 10:03:59;;;;;;;13.60;8.68;;;;;;;18.73;30.69;102415.69;5091042;28;20028;-72
2023/04/05 10:06:42;;;;;;;14.40;8.90;;;;;;;18.66;30.84;102413.63;5092572;28;20036;-71
2023/04/05 10:09:09;;;;;;;14.15;9.13;;;;;;;18.32;30.01;102408.06;5092035;28;20032;-71
2023/04/05 10:11:36;;;;;;;12.15;9.23;;;;;;;18.73;30.43;102411.16;5092667;28;20039;-72
2023/04/05 10:14:07;;;;;;;13.57;8.65;;;;;;;19.10;30.65;102412.00;5092455;28;20032;-71
2023/04/05 10:16:36;;;;;;;14.65;8.85;;;;;;;18.84;30.85;102402.00;5092604;28;20032;-71
2023/04/05 10:19:05;;;;;;;12.60;8.73;;;;;;;18.71;29.85;102405.06;5090008;28;20097;-70
2023/04/05 10:21:34;;;;;;;12.65;8.90;;;;;;;18.99;30.30;102403.16;5092495;28;20093;-70
2023/04/05 10:24:11;;;;;;;13.45;8.85;;;;;;;19.17;30.46;102395.03;5091895;28;20036;-70
2023/04/05 10:26:49;;;;;;;14.20;8.82;;;;;;;19.20;29.95;102401.97;5092510;28;20032;-71
2023/04/05 10:29:22;;;;;;;14.18;9.18;;;;;;;19.31;29.62;102390.03;5090708;28;20024;-72
2023/04/05 10:31:58;;;;;;;17.10;9.35;;;;;;;18.99;28.46;102386.97;5092217;28;20036;-71
2023/04/05 10:34:38;;;;;;;13.25;8.93;;;;;;;18.68;31.52;102394.59;5092496;28;20474;-71
2023/04/05 10:37:06;;;;;;;13.33;8.93;;;;;;;18.43;31.27;102393.53;5091789;28;20473;-71
2023/04/05 10:39:41;;;;;;;13.48;8.85;;;;;;;18.70;31.10;102391.75;5092490;28;20111;-71
2023/04/05 10:42:19;;;;;;;12.05;9.65;;;;;;;19.11;28.81;102379.47;5090675;28;20024;-71
2023/04/05 10:44:50;;;;;;;13.43;9.73;;;;;;;19.86;28.92;102381.56;5090882;28;20040;-72
2023/04/05 10:47:18;;;;;;;12.85;9.10;;;;;;;19.50;29.08;102378.19;5091778;28;20032;-72
2023/04/05 10:49:52;;;;;;;20.02;8.88;;;;;;;19.51;29.15;102375.31;5092251;28;20063;-71
2023/04/05 10:52:18;;;;;;;12.80;8.90;;;;;;;19.68;28.83;102378.94;5092447;28;20035;-71
2023/04/05 10:54:44;;;;;;;17.58;10.05;;;;;;;19.01;28.09;102378.72;5112169;28;20429;-71
2023/04/05 10:57:10;;;;;;;13.65;9.32;;;;;;;19.06;26.92;102372.84;5111722;28;20115;-71
2023/04/05 10:59:40;;;;;;;14.43;8.98;;;;;;;19.11;29.64;102375.91;5112295;28;20111;-71
2023/04/05 11:02:07;;;;;;;19.08;9.60;;;;;;;18.88;29.76;102375.59;5111992;28;20222;-72
2023/04/05 11:04:33;;;;;;;13.50;9.02;;;;;;;19.41;29.32;102371.03;5112124;28;20042;-71
2023/04/05 11:07:15;;;;;;;11.85;9.25;;;;;;;18.82;28.78;102372.50;5112123;28;20438;-71
2023/04/05 11:10:03;;;;;;;13.43;9.27;;;;;;;18.25;29.34;102371.97;5112333;28;20031;-72
2023/04/05 11:12:47;;;;;;;12.98;9.90;;;;;;;18.03;28.77;102366.00;5111896;28;20388;-71